createdAt,value
2022-11-22T00:01:11.682Z,6.50
2022-11-22T00:03:39.747Z,7.10
2022-11-22T00:06:08.083Z,7.50
2022-11-22T00:08:36.154Z,7.77
2022-11-22T00:11:05.664Z,7.00
2022-11-22T00:13:33.736Z,13.50
2022-11-22T00:16:03.407Z,7.73
2022-11-22T00:18:31.970Z,8.23
2022-11-22T00:21:06.036Z,9.67
2022-11-22T00:23:34.205Z,8.80
2022-11-22T00:26:02.315Z,12.93
2022-11-22T00:28:31.777Z,9.67
2022-11-22T00:30:59.906Z,12.00
2022-11-22T00:33:28.041Z,7.67
2022-11-22T00:35:56.134Z,8.60
2022-11-22T00:38:24.209Z,9.10
2022-11-22T00:40:52.369Z,9.70
2022-11-22T00:43:20.480Z,8.37
2022-11-22T00:45:50.015Z,7.60
2022-11-22T00:48:18.082Z,9.20
2022-11-22T00:50:46.358Z,9.83
2022-11-22T00:53:14.375Z,13.63
2022-11-22T00:55:42.548Z,10.90
2022-11-22T00:58:10.660Z,10.83
2022-11-22T01:00:38.844Z,12.97
2022-11-22T01:03:08.565Z,11.50
2022-11-22T01:05:36.626Z,11.53
2022-11-22T01:08:05.320Z,13.40
2022-11-22T01:10:36.069Z,9.60
2022-11-22T01:13:04.304Z,9.80
2022-11-22T01:15:32.817Z,10.53
2022-11-22T01:18:00.932Z,10.10
2022-11-22T01:20:31.556Z,11.10
2022-11-22T01:22:59.782Z,11.17
2022-11-22T01:25:27.897Z,10.67
2022-11-22T01:27:56.022Z,9.50
2022-11-22T01:30:24.202Z,10.30
2022-11-22T01:32:52.418Z,10.87
2022-11-22T01:35:20.525Z,14.00
2022-11-22T01:37:49.963Z,11.40
2022-11-22T01:40:18.090Z,9.90
2022-11-22T01:42:50.355Z,11.80
2022-11-22T01:45:43.508Z,12.10
2022-11-22T01:48:30.030Z,12.17
2022-11-22T01:51:03.031Z,10.20
2022-11-22T01:53:36.084Z,10.47
2022-11-22T01:56:08.811Z,10.00
2022-11-22T01:58:39.660Z,16.13
2022-11-22T02:01:08.856Z,10.57
2022-11-22T02:03:42.993Z,13.00
2022-11-22T02:06:11.889Z,12.10
2022-11-22T02:08:50.733Z,12.07
2022-11-22T02:11:19.713Z,11.20
2022-11-22T02:13:48.941Z,11.70
2022-11-22T02:16:17.084Z,10.43
2022-11-22T02:18:45.159Z,9.30
2022-11-22T02:21:13.635Z,11.87
2022-11-22T02:23:57.910Z,13.60
2022-11-22T02:26:30.378Z,12.70
2022-11-22T02:29:02.638Z,12.03
2022-11-22T02:31:40.029Z,11.23
2022-11-22T02:34:08.457Z,10.07
2022-11-22T02:36:40.921Z,11.27
2022-11-22T02:39:13.374Z,10.93
2022-11-22T02:41:44.193Z,10.67
2022-11-22T02:44:13.702Z,10.60
2022-11-22T02:46:49.208Z,15.00
2022-11-22T02:49:19.860Z,10.93
2022-11-22T02:51:48.584Z,13.03
2022-11-22T02:54:17.118Z,10.27
2022-11-22T02:56:47.089Z,10.27
2022-11-22T02:59:15.256Z,12.17
2022-11-22T03:01:44.780Z,10.80
2022-11-22T03:04:25.113Z,12.73
2022-11-22T03:06:55.418Z,12.27
2022-11-22T03:09:23.662Z,14.77
2022-11-22T03:11:54.056Z,12.37
2022-11-22T03:14:22.707Z,13.00
2022-11-22T03:16:51.002Z,14.47
2022-11-22T03:19:19.334Z,15.70
2022-11-22T03:21:47.505Z,15.30
2022-11-22T03:24:15.771Z,12.53
2022-11-22T03:26:48.256Z,14.13
2022-11-22T03:29:18.159Z,12.13
2022-11-22T03:31:46.335Z,11.33
2022-11-22T03:34:15.874Z,12.50
2022-11-22T03:36:44.031Z,14.60
2022-11-22T03:39:12.314Z,15.53
2022-11-22T03:41:40.353Z,14.43
2022-11-22T03:44:08.763Z,11.63
2022-11-22T03:46:38.273Z,13.10
2022-11-22T03:49:06.423Z,12.13
2022-11-22T03:51:34.540Z,13.00
2022-11-22T03:54:02.714Z,13.00
2022-11-22T03:56:30.806Z,13.40
2022-11-22T03:59:00.026Z,14.87
2022-11-22T04:01:28.113Z,14.93
2022-11-22T04:03:57.627Z,15.63
2022-11-22T04:06:25.751Z,13.13
2022-11-22T04:08:53.827Z,12.50
2022-11-22T04:11:22.104Z,15.40
2022-11-22T04:14:07.523Z,14.07
2022-11-22T04:16:35.997Z,14.03
2022-11-22T04:19:05.473Z,15.60
2022-11-22T04:21:35.582Z,15.03
2022-11-22T04:24:22.526Z,14.70
2022-11-22T04:26:50.739Z,14.43
2022-11-22T04:29:20.178Z,18.00
2022-11-22T04:32:06.377Z,17.40
2022-11-22T04:34:36.560Z,14.50
2022-11-22T04:37:05.275Z,15.13
2022-11-22T04:39:33.589Z,13.70
2022-11-22T04:42:19.606Z,17.03
2022-11-22T04:44:47.960Z,13.77
2022-11-22T04:47:34.238Z,14.07
2022-11-22T04:50:25.463Z,15.03
2022-11-22T04:52:54.306Z,17.20
2022-11-22T04:55:22.535Z,13.77
2022-11-22T04:57:54.546Z,14.50
2022-11-22T05:00:28.421Z,20.83
2022-11-22T05:02:56.827Z,18.00
2022-11-22T05:05:27.006Z,16.30
2022-11-22T05:07:55.333Z,14.80
2022-11-22T05:10:26.731Z,14.10
2022-11-22T05:12:55.485Z,19.90
2022-11-22T05:15:23.930Z,15.07
2022-11-22T05:17:52.199Z,15.50
2022-11-22T05:20:20.486Z,16.87
2022-11-22T05:23:07.204Z,18.13
2022-11-22T05:25:35.307Z,15.60
2022-11-22T05:28:03.515Z,15.97
2022-11-22T05:30:31.600Z,15.07
2022-11-22T05:32:59.794Z,15.73
2022-11-22T05:35:27.921Z,17.27
2022-11-22T05:37:59.118Z,16.60
2022-11-22T05:40:27.870Z,15.40
2022-11-22T05:42:56.092Z,15.40
2022-11-22T05:45:24.391Z,13.20
2022-11-22T05:47:52.606Z,17.57
2022-11-22T05:50:20.790Z,13.93
2022-11-22T05:52:48.900Z,14.27
2022-11-22T05:55:18.731Z,15.70
2022-11-22T05:57:46.831Z,15.23
2022-11-22T06:00:16.002Z,15.80
2022-11-22T06:02:44.030Z,18.70
2022-11-22T06:05:12.574Z,13.80
2022-11-22T06:07:40.946Z,16.20
2022-11-22T06:10:10.002Z,16.47
2022-11-22T06:12:39.544Z,17.80
2022-11-22T06:15:08.705Z,13.87
2022-11-22T06:17:36.807Z,15.17
2022-11-22T06:20:06.610Z,15.97
2022-11-22T06:22:35.215Z,13.50
2022-11-22T06:25:03.402Z,16.87
2022-11-22T06:27:31.732Z,11.97
2022-11-22T06:30:01.254Z,13.93
2022-11-22T06:32:29.331Z,13.80
2022-11-22T06:34:57.420Z,13.80
2022-11-22T06:37:25.703Z,14.80
2022-11-22T06:39:53.871Z,14.13
2022-11-22T06:42:22.021Z,17.63
2022-11-22T06:44:50.124Z,14.37
2022-11-22T06:47:19.699Z,12.40
2022-11-22T06:49:47.796Z,16.00
2022-11-22T06:52:15.832Z,15.40
2022-11-22T06:54:43.948Z,15.63
2022-11-22T06:57:14.547Z,14.83
2022-11-22T06:59:42.750Z,13.80
2022-11-22T07:02:13.175Z,15.10
2022-11-22T07:05:02.184Z,17.43
2022-11-22T07:07:30.985Z,14.17
2022-11-22T07:09:59.182Z,14.17
2022-11-22T07:12:27.810Z,16.97
2022-11-22T07:14:55.885Z,13.13
2022-11-22T07:17:24.002Z,14.73
2022-11-22T07:19:53.506Z,12.70
2022-11-22T07:22:21.634Z,13.00
2022-11-22T07:24:49.702Z,16.07
2022-11-22T07:27:17.788Z,14.23
2022-11-22T07:29:45.857Z,12.70
2022-11-22T07:32:13.914Z,13.97
2022-11-22T07:34:42.072Z,12.43
2022-11-22T07:37:11.575Z,15.97
2022-11-22T07:39:39.934Z,15.77
2022-11-22T07:42:08.026Z,12.53
2022-11-22T07:44:36.179Z,14.03
2022-11-22T07:47:04.307Z,14.33
2022-11-22T07:49:32.585Z,14.20
2022-11-22T07:52:00.869Z,14.93
2022-11-22T07:54:30.348Z,12.40
2022-11-22T07:56:58.489Z,11.00
2022-11-22T07:59:26.615Z,11.87
2022-11-22T08:01:55.235Z,12.17
2022-11-22T08:04:23.476Z,12.67
2022-11-22T08:06:51.541Z,13.07
2022-11-22T08:09:19.683Z,12.33
2022-11-22T08:11:49.848Z,11.67
2022-11-22T08:14:18.034Z,10.70
2022-11-22T08:16:46.097Z,12.00
2022-11-22T08:19:17.674Z,10.80
2022-11-22T08:21:45.823Z,17.13
2022-11-22T08:24:13.984Z,14.03
2022-11-22T08:26:42.621Z,11.50
2022-11-22T08:29:14.523Z,12.43
2022-11-22T08:31:42.783Z,10.83
2022-11-22T08:34:10.909Z,11.73
2022-11-22T08:36:40.229Z,12.10
2022-11-22T08:39:08.312Z,11.50
2022-11-22T08:41:36.502Z,10.07
2022-11-22T08:44:04.898Z,14.40
2022-11-22T08:46:34.423Z,12.70
2022-11-22T08:49:03.946Z,11.90
2022-11-22T08:51:32.646Z,12.47
2022-11-22T08:54:00.919Z,13.63
2022-11-22T08:56:29.078Z,14.03
2022-11-22T08:58:57.561Z,12.30
2022-11-22T09:01:25.684Z,13.33
2022-11-22T09:03:55.266Z,15.17
2022-11-22T09:11:59.498Z,16.70
2022-11-22T09:14:27.577Z,11.50
2022-11-22T09:16:55.721Z,13.53
2022-11-22T09:19:25.225Z,13.17
2022-11-22T09:21:53.489Z,16.63
2022-11-22T09:24:21.719Z,11.57
2022-11-22T09:26:52.873Z,14.80
2022-11-22T09:29:20.960Z,12.40
2022-11-22T09:31:49.460Z,15.40
2022-11-22T09:34:17.532Z,15.00
2022-11-22T09:36:46.990Z,17.03
2022-11-22T09:39:15.091Z,18.53
2022-11-22T09:42:17.552Z,11.23
2022-11-22T09:45:13.705Z,14.70
2022-11-22T09:47:47.557Z,11.90
2022-11-22T09:50:23.290Z,11.90
2022-11-22T09:52:56.122Z,11.07
2022-11-22T09:55:30.079Z,10.40
2022-11-22T09:58:08.479Z,11.90
2022-11-22T10:00:36.761Z,11.00
2022-11-22T10:03:11.856Z,11.83
2022-11-22T10:05:52.261Z,12.03
2022-11-22T10:08:35.347Z,9.90
2022-11-22T10:11:07.435Z,10.00
2022-11-22T10:13:40.304Z,10.83
2022-11-22T10:16:15.381Z,10.67
2022-11-22T10:18:47.456Z,10.20
2022-11-22T10:21:16.455Z,9.23
2022-11-22T10:23:46.962Z,10.57
2022-11-22T10:26:23.414Z,9.77
2022-11-22T10:29:02.870Z,10.70
2022-11-22T10:31:36.691Z,10.57
2022-11-22T10:34:13.189Z,10.70
2022-11-22T10:36:50.603Z,8.70
2022-11-22T10:39:38.522Z,10.97
2022-11-22T10:42:20.638Z,9.00
2022-11-22T10:44:56.626Z,11.70
2022-11-22T10:47:43.279Z,12.50
2022-11-22T10:50:18.020Z,8.73
2022-11-22T10:52:57.768Z,9.10
2022-11-22T10:55:42.673Z,7.60
2022-11-22T10:58:19.478Z,9.37
2022-11-22T11:00:53.158Z,10.33
2022-11-22T11:03:30.707Z,9.50
2022-11-22T11:06:24.447Z,6.73
2022-11-22T11:09:54.946Z,6.60
2022-11-22T11:11:53.195Z,10.57
2022-11-22T11:14:30.118Z,13.27
2022-11-22T11:16:59.129Z,11.80
2022-11-22T11:19:31.569Z,16.30
2022-11-22T11:22:03.267Z,6.70
2022-11-22T11:24:32.823Z,8.30
2022-11-22T11:27:02.876Z,7.97
2022-11-22T11:29:38.032Z,6.10
2022-11-22T11:32:10.550Z,11.70
2022-11-22T11:34:40.674Z,10.07
2022-11-22T11:37:19.634Z,7.17
2022-11-22T11:39:48.654Z,6.40
2022-11-22T11:42:29.615Z,8.50
2022-11-22T11:45:22.387Z,9.50
2022-11-22T11:47:50.485Z,14.07
2022-11-22T11:50:24.347Z,13.40
2022-11-22T11:52:56.528Z,11.97
2022-11-22T11:55:24.958Z,15.60
2022-11-22T11:57:55.178Z,11.37
2022-11-22T12:00:28.051Z,13.23
2022-11-22T12:03:01.045Z,8.63
2022-11-22T12:05:31.212Z,11.07
2022-11-22T12:08:00.120Z,10.17
2022-11-22T12:10:36.353Z,9.43
2022-11-22T12:13:16.842Z,7.20
2022-11-22T12:15:55.985Z,12.00
2022-11-22T12:18:36.828Z,8.90
2022-11-22T12:21:14.195Z,6.90
2022-11-22T12:23:51.218Z,7.37
2022-11-22T12:26:20.092Z,8.10
2022-11-22T12:28:50.508Z,7.73
2022-11-22T12:31:33.236Z,6.80
2022-11-22T12:34:04.263Z,7.20
2022-11-22T12:36:40.604Z,8.47
2022-11-22T12:39:20.136Z,7.20
2022-11-22T12:41:51.296Z,9.83
2022-11-22T12:44:22.490Z,8.70
2022-11-22T12:47:00.631Z,7.87
2022-11-22T12:49:37.965Z,8.77
2022-11-22T12:52:17.473Z,7.23
2022-11-22T12:54:54.636Z,8.23
2022-11-22T12:57:42.165Z,9.47
2022-11-22T13:00:16.612Z,8.33
2022-11-22T13:02:58.611Z,7.60
2022-11-22T13:05:30.928Z,10.80
2022-11-22T13:08:07.036Z,9.37
2022-11-22T13:10:39.910Z,7.17
2022-11-22T13:13:26.336Z,7.03
2022-11-22T13:15:59.058Z,6.83
2022-11-22T13:18:28.918Z,14.73
2022-11-22T13:21:05.256Z,6.40
2022-11-22T13:23:51.255Z,6.87
2022-11-22T13:26:28.780Z,6.20
2022-11-22T13:28:58.146Z,5.60
2022-11-22T13:31:27.655Z,6.53
2022-11-22T13:33:58.147Z,9.73
2022-11-22T13:36:41.492Z,5.83
2022-11-22T13:39:17.753Z,6.63
2022-11-22T13:42:04.332Z,7.10
2022-11-22T13:44:51.186Z,6.33
2022-11-22T13:47:41.348Z,6.33
2022-11-22T13:50:58.653Z,6.07
2022-11-22T13:53:32.862Z,5.03
2022-11-22T13:56:50.266Z,7.43
2022-11-22T13:59:19.588Z,6.17
2022-11-22T14:02:00.108Z,5.10
2022-11-22T14:04:39.985Z,6.50
2022-11-22T14:07:31.671Z,6.43
2022-11-22T14:10:01.218Z,5.50
2022-11-22T14:12:55.574Z,5.40
2022-11-22T14:15:36.251Z,4.50
2022-11-22T14:18:24.394Z,4.07
2022-11-22T14:21:05.070Z,5.30
2022-11-22T14:23:44.671Z,12.43
2022-11-22T14:26:22.867Z,4.00
2022-11-22T14:29:28.990Z,4.97
2022-11-22T14:32:03.867Z,14.53
2022-11-22T14:34:32.665Z,11.87
2022-11-22T14:37:44.833Z,4.70
2022-11-22T14:40:31.912Z,5.93
2022-11-22T14:43:02.955Z,4.67
2022-11-22T14:45:44.057Z,4.40
2022-11-22T14:48:18.703Z,6.13
2022-11-22T14:50:52.015Z,5.30
2022-11-22T14:53:31.278Z,6.43
2022-11-22T14:56:06.371Z,7.20
2022-11-22T14:58:39.841Z,4.73
2022-11-22T15:01:45.460Z,4.63
2022-11-22T15:09:18.389Z,4.93
2022-11-22T15:09:21.646Z,5.37
2022-11-22T15:11:08.949Z,4.53
2022-11-22T15:14:05.622Z,5.27
2022-11-22T15:57:27.107Z,12.07
2022-11-22T15:59:57.277Z,15.07
2022-11-22T16:02:29.892Z,6.20
2022-11-22T16:06:09.335Z,5.80
2022-11-22T16:07:51.041Z,5.90
2022-11-22T16:10:22.394Z,4.77
2022-11-22T16:12:51.267Z,5.47
2022-11-22T16:15:36.429Z,5.27
2022-11-22T16:18:14.569Z,5.60
2022-11-22T16:20:43.565Z,4.87
2022-11-22T16:23:25.310Z,4.40
2022-11-22T16:25:57.873Z,4.37
2022-11-22T16:28:34.908Z,4.77
2022-11-22T16:31:06.474Z,4.13
2022-11-22T16:33:36.128Z,3.73
2022-11-22T16:36:07.049Z,4.33
2022-11-22T16:38:35.130Z,4.37
2022-11-22T16:41:03.230Z,6.13
2022-11-22T16:43:36.108Z,4.27
2022-11-22T16:46:04.889Z,5.07
2022-11-22T16:48:33.696Z,5.90
2022-11-22T16:51:07.829Z,4.30
2022-11-22T16:53:41.179Z,5.13
2022-11-22T16:56:10.264Z,4.00
2022-11-22T16:58:38.435Z,4.87
2022-11-22T17:01:07.447Z,7.90
2022-11-22T17:03:40.211Z,13.97
2022-11-22T17:06:16.221Z,14.80
2022-11-22T17:08:44.322Z,24.07
2022-11-22T17:11:14.900Z,11.53
2022-11-22T17:13:43.184Z,16.10
2022-11-22T17:16:12.279Z,13.67
2022-11-22T17:18:40.552Z,5.80
2022-11-22T17:21:18.000Z,6.00
2022-11-22T17:23:46.579Z,5.40
2022-11-22T17:26:14.679Z,11.00
2022-11-22T17:28:42.770Z,5.07
2022-11-22T17:31:13.663Z,4.30
2022-11-22T17:33:42.617Z,3.80
2022-11-22T17:36:21.222Z,4.00
2022-11-22T17:38:49.456Z,4.60
2022-11-22T17:41:17.670Z,4.03
2022-11-22T17:43:46.061Z,3.30
2022-11-22T17:46:14.251Z,3.57
2022-11-22T17:48:42.562Z,6.67
2022-11-22T17:51:12.603Z,6.90
2022-11-22T17:53:42.118Z,5.27
2022-11-22T17:56:11.928Z,6.87
2022-11-22T17:58:40.793Z,4.20
2022-11-22T18:01:10.741Z,4.63
2022-11-22T18:03:39.634Z,12.23
2022-11-22T18:06:08.732Z,3.90
2022-11-22T18:08:37.189Z,5.53
2022-11-22T18:11:07.126Z,4.80
2022-11-22T18:13:37.058Z,6.13
2022-11-22T18:16:08.658Z,4.70
2022-11-22T18:21:29.181Z,4.23
2022-11-22T18:23:58.432Z,4.27
2022-11-22T18:26:43.389Z,4.03
2022-11-22T18:32:01.923Z,4.80
2022-11-22T18:34:30.592Z,3.67
2022-11-22T18:37:02.535Z,3.90
2022-11-22T18:39:33.693Z,5.00
2022-11-22T18:42:03.999Z,4.90
2022-11-22T18:44:32.129Z,4.00
2022-11-22T18:47:00.240Z,6.23
2022-11-22T18:49:28.797Z,4.20
2022-11-22T18:51:56.922Z,4.30
2022-11-22T18:54:24.996Z,4.10
2022-11-22T18:56:53.374Z,4.83
2022-11-22T18:59:22.889Z,4.47
2022-11-22T19:01:51.142Z,4.17
2022-11-22T19:04:19.242Z,4.40
2022-11-22T19:06:47.358Z,3.83
2022-11-22T19:09:15.649Z,4.73
2022-11-22T19:11:43.721Z,4.70
2022-11-22T19:14:11.793Z,5.03
2022-11-22T19:16:41.381Z,4.30
2022-11-22T19:19:11.940Z,5.10
2022-11-22T19:21:40.228Z,4.10
2022-11-22T19:24:08.342Z,5.47
2022-11-22T19:26:36.489Z,5.50
2022-11-22T19:29:05.036Z,6.40
2022-11-22T19:31:33.804Z,5.33
2022-11-22T19:34:03.381Z,5.23
2022-11-22T19:36:34.377Z,13.33
2022-11-22T19:39:04.492Z,6.00
2022-11-22T19:41:33.105Z,7.10
2022-11-22T19:44:01.326Z,7.33
2022-11-22T19:46:29.493Z,6.03
2022-11-22T19:48:59.264Z,12.23
2022-11-22T19:51:30.934Z,5.80
2022-11-22T19:54:02.281Z,7.50
2022-11-22T19:56:32.862Z,9.90
2022-11-22T19:59:02.588Z,6.20
2022-11-22T20:01:32.833Z,7.33
2022-11-22T20:04:03.484Z,13.47
2022-11-22T20:06:34.028Z,12.90
2022-11-22T20:09:03.571Z,8.43
2022-11-22T20:11:31.741Z,7.47
2022-11-22T20:14:00.474Z,5.07
2022-11-22T20:16:30.715Z,4.70
2022-11-22T20:19:00.766Z,5.90
2022-11-22T20:21:30.839Z,13.10
2022-11-22T20:24:01.463Z,6.70
2022-11-22T20:26:30.925Z,4.67
2022-11-22T20:29:00.693Z,5.30
2022-11-22T20:31:31.236Z,8.73
2022-11-22T20:34:00.367Z,6.00
2022-11-22T20:36:30.889Z,7.70
2022-11-22T20:39:05.349Z,5.03
2022-11-22T20:41:37.335Z,6.50
2022-11-22T20:44:05.504Z,6.17
2022-11-22T20:46:37.566Z,6.13
2022-11-22T20:49:05.910Z,5.57
2022-11-22T20:51:36.155Z,6.00
2022-11-22T20:54:06.561Z,8.03
2022-11-22T20:56:35.042Z,4.90
2022-11-22T20:59:03.138Z,6.40
2022-11-22T21:01:33.055Z,6.13
2022-11-22T21:04:01.167Z,5.70
2022-11-22T21:06:29.475Z,6.90
2022-11-22T21:08:57.967Z,10.70
2022-11-22T21:11:29.376Z,19.40
2022-11-22T21:13:58.522Z,5.97
2022-11-22T21:16:28.670Z,7.90
2022-11-22T21:18:58.288Z,4.37
2022-11-22T21:21:27.704Z,6.23
2022-11-22T21:23:57.350Z,4.60
2022-11-22T21:26:27.667Z,11.23
2022-11-22T21:28:56.107Z,4.40
2022-11-22T21:31:24.744Z,6.47
2022-11-22T21:33:53.219Z,11.43
2022-11-22T21:36:22.616Z,11.00
2022-11-22T21:38:50.774Z,4.30
2022-11-22T21:44:10.775Z,6.63
2022-11-22T21:46:39.730Z,11.00
2022-11-22T21:49:08.599Z,10.20
2022-11-22T21:51:36.696Z,6.70
2022-11-22T21:54:05.369Z,9.17
2022-11-22T21:56:33.638Z,11.70
2022-11-22T21:59:02.200Z,13.40
2022-11-22T22:01:32.231Z,10.73
2022-11-22T22:04:00.476Z,5.40
2022-11-22T22:06:28.638Z,5.10
2022-11-22T22:08:56.854Z,4.97
2022-11-22T22:11:25.164Z,9.50
2022-11-22T22:13:54.266Z,6.70
2022-11-22T22:16:23.820Z,7.33
2022-11-22T22:18:54.089Z,3.90
2022-11-22T22:21:22.613Z,6.83
2022-11-22T22:23:51.827Z,8.33
2022-11-22T22:26:20.029Z,5.20
2022-11-22T22:28:48.132Z,6.70
2022-11-22T22:31:21.696Z,12.80
2022-11-22T22:33:53.073Z,9.70
2022-11-22T22:36:22.117Z,11.43
2022-11-22T22:38:50.484Z,9.50
2022-11-22T22:41:19.398Z,6.70
2022-11-22T22:43:48.999Z,8.53
2022-11-22T22:46:18.829Z,4.10
2022-11-22T22:48:47.661Z,11.50
2022-11-22T22:51:19.022Z,4.67
2022-11-22T22:53:47.879Z,7.00
2022-11-22T22:56:17.703Z,5.33
2022-11-22T22:58:46.455Z,8.67
2022-11-22T23:01:17.451Z,6.37
2022-11-22T23:03:49.071Z,7.20
2022-11-22T23:06:19.058Z,3.90
2022-11-22T23:08:49.920Z,4.20
2022-11-22T23:11:19.866Z,7.13
2022-11-22T23:13:48.023Z,5.43
2022-11-22T23:16:16.795Z,4.27
2022-11-22T23:18:46.593Z,7.00
2022-11-22T23:21:16.157Z,6.17
2022-11-22T23:23:46.696Z,17.43
2022-11-22T23:26:15.706Z,10.57
2022-11-22T23:28:53.876Z,11.17
2022-11-22T23:31:23.531Z,15.70
2022-11-22T23:33:51.951Z,6.83
2022-11-22T23:36:22.253Z,9.40
2022-11-22T23:38:51.775Z,6.27
2022-11-22T23:41:21.645Z,8.70
2022-11-22T23:43:54.093Z,7.70
2022-11-22T23:46:24.998Z,15.63
2022-11-22T23:48:55.691Z,9.87
2022-11-22T23:51:24.165Z,9.60
2022-11-22T23:53:56.952Z,3.93
2022-11-22T23:56:25.450Z,8.47
2022-11-22T23:58:54.060Z,9.20
